Time;durP1;ratioP1;P1;durP2;ratioP2;P2;SDS_P1;SDS_P2;PMS_P1;PMS_P2;Temp;Humidity;BMP_temperature;BMP_pressure;BME280_temperature;BME280_humidity;BME280_pressure;Samples;Min_cycle;Max_cycle;Signal;HPM_P1;HPM_P2
2021/12/01 00:01:00;;;;;;;10.90;3.30;;;6.70;99.90;;;;;;5068679;28;20219;-83
2021/12/01 00:03:27;;;;;;;13.70;3.50;;;6.70;99.90;;;;;;5067761;28;21973;-84
2021/12/01 00:05:54;;;;;;;15.60;3.40;;;6.70;99.90;;;;;;5076430;28;20960;-81
2021/12/01 00:08:20;;;;;;;13.57;2.80;;;6.80;99.90;;;;;;5070998;28;20756;-80
2021/12/01 00:10:48;;;;;;;12.20;4.67;;;6.80;99.90;;;;;;5088916;28;20213;-82
2021/12/01 00:13:18;;;;;;;14.00;3.70;;;6.80;99.90;;;;;;5079294;28;20219;-83
2021/12/01 00:15:47;;;;;;;14.27;4.23;;;6.80;99.90;;;;;;5069202;28;20211;-84
2021/12/01 00:18:14;;;;;;;18.33;6.50;;;6.90;99.90;;;;;;5085162;28;20248;-84
2021/12/01 00:20:42;;;;;;;14.57;4.97;;;6.90;99.90;;;;;;5085470;28;20766;-84
2021/12/01 00:23:09;;;;;;;19.07;8.30;;;6.90;99.90;;;;;;5061302;28;20899;-82
2021/12/01 00:25:39;;;;;;;13.33;4.97;;;6.90;99.90;;;;;;5086459;28;20222;-83
2021/12/01 00:28:07;;;;;;;15.23;6.83;;;7.00;99.90;;;;;;5071715;28;20228;-83
2021/12/01 00:30:34;;;;;;;11.30;4.03;;;7.00;99.90;;;;;;5067969;28;20252;-82
2021/12/01 00:33:02;;;;;;;9.30;3.53;;;7.00;99.90;;;;;;5067152;28;20870;-82
2021/12/01 00:35:30;;;;;;;12.87;3.43;;;7.00;99.90;;;;;;5071727;28;20304;-83
2021/12/01 00:37:57;;;;;;;11.13;3.60;;;7.10;99.90;;;;;;5090506;28;20655;-82
2021/12/01 00:40:25;;;;;;;17.57;3.53;;;7.10;99.90;;;;;;5065002;28;20257;-83
2021/12/01 00:42:51;;;;;;;14.27;3.43;;;7.10;99.90;;;;;;5079861;28;20312;-83
2021/12/01 00:45:21;;;;;;;13.47;3.73;;;7.10;99.90;;;;;;5067711;28;20221;-84
2021/12/01 00:47:50;;;;;;;13.23;3.80;;;7.10;99.90;;;;;;5068244;28;20292;-83
2021/12/01 00:50:22;;;;;;;15.43;3.43;;;7.10;99.90;;;;;;5058631;28;20226;-84
2021/12/01 00:52:49;;;;;;;15.47;3.90;;;7.20;99.90;;;;;;5077099;28;20218;-83
2021/12/01 00:55:16;;;;;;;11.53;3.53;;;7.20;99.90;;;;;;5079627;28;20260;-83
2021/12/01 00:57:43;;;;;;;14.07;3.23;;;7.20;99.90;;;;;;5082082;28;20211;-83
2021/12/01 01:00:11;;;;;;;16.10;3.73;;;7.20;99.90;;;;;;5058078;28;20226;-84
2021/12/01 01:02:38;;;;;;;11.40;3.20;;;7.20;99.90;;;;;;5061059;28;20295;-85
2021/12/01 01:05:06;;;;;;;13.80;3.60;;;7.20;99.90;;;;;;5058299;28;20249;-86
2021/12/01 01:07:35;;;;;;;18.13;3.93;;;7.20;99.90;;;;;;5060866;28;20950;-85
2021/12/01 01:10:15;;;;;;;12.60;2.60;;;7.20;99.90;;;;;;5061483;28;20209;-86
2021/12/01 01:18:08;;;;;;;16.37;3.40;;;7.30;99.90;;;;;;5025071;28;20271;-86
2021/12/01 01:20:35;;;;;;;19.00;3.60;;;7.30;99.90;;;;;;5079756;28;20264;-86
2021/12/01 01:23:05;;;;;;;10.60;2.93;;;7.30;99.90;;;;;;5057790;28;20218;-85
2021/12/01 01:25:31;;;;;;;22.27;3.60;;;7.30;99.90;;;;;;5062847;28;20310;-85
2021/12/01 01:27:59;;;;;;;12.47;3.13;;;7.30;99.90;;;;;;5074033;28;20661;-85
2021/12/01 01:30:26;;;;;;;13.03;3.23;;;7.30;99.90;;;;;;5058972;28;20254;-85
2021/12/01 01:32:53;;;;;;;13.07;3.27;;;7.30;99.90;;;;;;5084102;28;20282;-86
2021/12/01 01:35:20;;;;;;;19.00;4.20;;;7.30;99.90;;;;;;5068514;28;20223;-86
2021/12/01 01:37:47;;;;;;;12.23;3.80;;;7.30;99.90;;;;;;5070368;28;20750;-85
2021/12/01 01:40:15;;;;;;;11.20;3.67;;;7.30;99.90;;;;;;5071827;28;20238;-85
2021/12/01 01:42:42;;;;;;;14.30;3.67;;;7.30;99.90;;;;;;5072003;28;20257;-87
2021/12/01 01:45:10;;;;;;;19.27;3.83;;;7.40;99.90;;;;;;5072367;28;20239;-87
2021/12/01 01:47:37;;;;;;;13.00;4.20;;;7.40;99.90;;;;;;5072275;28;20264;-87
2021/12/01 01:50:19;;;;;;;11.10;3.80;;;7.40;99.90;;;;;;5071296;28;20237;-86
2021/12/01 01:52:46;;;;;;;13.37;4.10;;;7.40;99.90;;;;;;5068094;28;20219;-87
2021/12/01 01:55:14;;;;;;;13.50;4.10;;;7.40;99.90;;;;;;5070771;28;20229;-86
2021/12/01 01:57:44;;;;;;;13.27;4.37;;;7.40;99.90;;;;;;5069618;28;20226;-86
2021/12/01 02:00:13;;;;;;;19.17;4.17;;;7.40;99.90;;;;;;5060570;28;20227;-87
2021/12/01 02:02:44;;;;;;;19.53;4.40;;;7.40;99.90;;;;;;5087131;28;20218;-85
2021/12/01 02:05:11;;;;;;;13.63;5.00;;;7.40;99.90;;;;;;5085637;28;20219;-86
2021/12/01 02:07:37;;;;;;;108.27;10.83;;;7.40;99.90;;;;;;5072133;28;20253;-84
2021/12/01 02:10:05;;;;;;;19.43;4.93;;;7.40;99.90;;;;;;5068002;28;20276;-85
2021/12/01 02:12:42;;;;;;;15.87;4.67;;;7.40;99.90;;;;;;5072795;28;20227;-85
2021/12/01 02:15:10;;;;;;;21.43;5.23;;;7.40;99.90;;;;;;5073326;28;20269;-86
2021/12/01 02:17:37;;;;;;;12.43;4.60;;;7.40;99.90;;;;;;5071432;28;20313;-86
2021/12/01 02:20:12;;;;;;;15.17;4.70;;;7.40;99.90;;;;;;5067454;28;20225;-86
2021/12/01 02:22:40;;;;;;;15.40;5.10;;;7.30;99.90;;;;;;5081463;28;20217;-87
2021/12/01 02:25:07;;;;;;;31.27;5.93;;;7.40;99.90;;;;;;5071432;28;20279;-86
2021/12/01 02:27:35;;;;;;;12.47;4.53;;;7.40;99.90;;;;;;5077156;28;20333;-83
2021/12/01 02:30:02;;;;;;;12.93;5.37;;;7.40;99.90;;;;;;5090065;28;20222;-82
2021/12/01 02:32:29;;;;;;;21.37;5.47;;;7.40;99.90;;;;;;5072780;28;21053;-82
2021/12/01 02:34:55;;;;;;;13.50;5.23;;;7.40;99.90;;;;;;5085972;28;20215;-81
2021/12/01 02:37:22;;;;;;;14.27;5.47;;;7.40;99.90;;;;;;5088404;28;20233;-83
2021/12/01 02:39:51;;;;;;;18.50;5.63;;;7.40;99.90;;;;;;5083348;28;20217;-82
2021/12/01 02:42:20;;;;;;;18.33;5.33;;;7.50;99.90;;;;;;5071272;28;20222;-81
2021/12/01 02:44:47;;;;;;;14.47;5.07;;;7.50;99.90;;;;;;5065210;28;20219;-82
2021/12/01 02:47:13;;;;;;;13.83;4.60;;;7.50;99.90;;;;;;5084220;28;20225;-81
2021/12/01 02:49:40;;;;;;;8.23;4.30;;;7.50;99.90;;;;;;5072136;28;20214;-81
2021/12/01 02:52:07;;;;;;;17.37;5.17;;;7.60;99.90;;;;;;5072251;28;20730;-81
2021/12/01 02:54:34;;;;;;;12.47;4.70;;;7.60;99.90;;;;;;5081652;28;20316;-82
2021/12/01 02:57:02;;;;;;;24.63;5.37;;;7.60;99.90;;;;;;5071119;28;20217;-81
2021/12/01 02:59:29;;;;;;;14.40;4.70;;;7.70;99.90;;;;;;5086264;28;20713;-82
2021/12/01 03:01:57;;;;;;;8.73;4.20;;;7.70;99.90;;;;;;5065072;28;20224;-81
2021/12/01 03:04:24;;;;;;;9.13;4.33;;;7.70;99.90;;;;;;5065870;28;20309;-81
2021/12/01 03:06:51;;;;;;;24.63;5.00;;;7.70;99.90;;;;;;5084640;28;20261;-81
2021/12/01 03:09:18;;;;;;;10.63;3.60;;;7.70;99.90;;;;;;5066032;28;20634;-81
2021/12/01 03:11:45;;;;;;;6.63;3.50;;;7.70;99.90;;;;;;5086031;28;20309;-80
2021/12/01 03:14:16;;;;;;;6.10;3.03;;;7.70;99.90;;;;;;5068021;28;20253;-81
2021/12/01 03:16:43;;;;;;;14.90;3.87;;;7.70;99.90;;;;;;5086166;28;20215;-80
2021/12/01 03:19:10;;;;;;;4.93;3.37;;;7.80;99.90;;;;;;5079764;28;20227;-81
2021/12/01 03:21:37;;;;;;;5.73;2.87;;;7.80;99.90;;;;;;5066220;28;20225;-81
2021/12/01 03:24:05;;;;;;;7.23;3.00;;;7.80;99.90;;;;;;5082567;28;20211;-80
2021/12/01 03:26:33;;;;;;;3.73;2.40;;;7.80;99.90;;;;;;5088386;28;20806;-80
2021/12/01 03:29:00;;;;;;;5.77;2.30;;;7.80;99.90;;;;;;5073406;28;20282;-81
2021/12/01 03:31:28;;;;;;;30.87;4.73;;;7.80;99.90;;;;;;5088338;28;20215;-81
2021/12/01 03:33:55;;;;;;;4.03;2.63;;;7.80;99.90;;;;;;5064418;28;20226;-82
2021/12/01 03:36:22;;;;;;;3.30;2.10;;;7.90;99.90;;;;;;5083522;28;20567;-81
2021/12/01 03:38:49;;;;;;;3.50;2.00;;;7.90;99.90;;;;;;5079152;28;20305;-81
2021/12/01 03:41:15;;;;;;;3.73;2.30;;;7.90;99.90;;;;;;5089054;28;20219;-81
2021/12/01 03:43:42;;;;;;;4.13;2.20;;;8.00;99.90;;;;;;5084619;28;20219;-81
2021/12/01 03:46:09;;;;;;;9.27;2.70;;;8.00;99.90;;;;;;5069653;28;20706;-80
2021/12/01 03:48:37;;;;;;;2.77;2.17;;;8.00;99.90;;;;;;5089467;28;20787;-80
2021/12/01 03:51:04;;;;;;;2.70;2.00;;;8.00;99.90;;;;;;5082912;28;20213;-80
2021/12/01 03:53:31;;;;;;;4.03;2.50;;;8.10;99.90;;;;;;5078503;28;20224;-80
2021/12/01 03:55:59;;;;;;;3.13;1.80;;;8.10;99.90;;;;;;5083017;28;20223;-80
2021/12/01 03:58:26;;;;;;;3.17;2.17;;;8.10;99.90;;;;;;5080072;28;20217;-80
2021/12/01 04:00:52;;;;;;;4.10;2.10;;;8.10;99.90;;;;;;5079966;28;20253;-80
2021/12/01 04:03:19;;;;;;;3.50;2.00;;;8.10;99.90;;;;;;5065967;28;20222;-81
2021/12/01 04:05:47;;;;;;;5.03;2.43;;;8.10;99.90;;;;;;5071302;28;20257;-82
2021/12/01 04:08:14;;;;;;;4.17;2.03;;;8.10;99.90;;;;;;5067449;28;20219;-82
2021/12/01 04:10:41;;;;;;;3.40;2.00;;;8.10;99.90;;;;;;5086063;28;20302;-81
2021/12/01 04:13:08;;;;;;;3.90;2.20;;;8.10;99.90;;;;;;5082686;28;21084;-80
2021/12/01 04:15:34;;;;;;;3.10;2.00;;;8.10;99.90;;;;;;5086991;28;20347;-81
2021/12/01 04:18:01;;;;;;;5.27;2.17;;;8.10;99.90;;;;;;5069917;28;20218;-81
2021/12/01 04:20:28;;;;;;;2.40;1.80;;;8.10;99.90;;;;;;5088325;28;20237;-80
2021/12/01 04:22:56;;;;;;;3.23;1.83;;;8.10;99.90;;;;;;5080390;28;20220;-81
2021/12/01 04:25:23;;;;;;;5.73;2.07;;;8.10;99.90;;;;;;5058639;28;20602;-80
2021/12/01 04:27:50;;;;;;;4.27;1.90;;;8.10;99.90;;;;;;5086328;28;20222;-80
2021/12/01 04:30:22;;;;;;;1.70;1.60;;;8.10;99.90;;;;;;5087462;28;20218;-80
2021/12/01 04:32:49;;;;;;;4.53;1.93;;;8.10;99.90;;;;;;5083391;28;20207;-81
2021/12/01 04:35:18;;;;;;;2.23;1.63;;;8.10;99.90;;;;;;5087369;28;20326;-80
2021/12/01 04:37:46;;;;;;;3.23;1.90;;;8.10;99.90;;;;;;5066253;28;20755;-81
2021/12/01 04:40:14;;;;;;;2.13;1.60;;;8.10;99.90;;;;;;5064662;28;20555;-81
2021/12/01 04:42:41;;;;;;;3.40;1.60;;;8.20;99.90;;;;;;5087457;28;20218;-80
2021/12/01 04:45:14;;;;;;;4.23;1.90;;;8.20;99.90;;;;;;5069214;28;20217;-80
2021/12/01 04:47:42;;;;;;;2.07;1.73;;;8.20;99.90;;;;;;5068674;28;20246;-82
2021/12/01 04:50:10;;;;;;;3.83;2.03;;;8.20;99.90;;;;;;5069935;28;20962;-82
2021/12/01 04:52:37;;;;;;;6.10;2.53;;;8.20;99.90;;;;;;5084142;28;20213;-81
2021/12/01 04:55:04;;;;;;;3.33;1.80;;;8.20;99.90;;;;;;5064999;28;20230;-84
2021/12/01 04:57:33;;;;;;;4.53;2.00;;;8.20;99.90;;;;;;5070637;28;20239;-82
2021/12/01 04:59:59;;;;;;;1.97;1.73;;;8.20;99.90;;;;;;5070188;28;20223;-81
2021/12/01 05:02:26;;;;;;;2.50;2.07;;;8.30;99.90;;;;;;5083578;28;20219;-80
2021/12/01 05:04:53;;;;;;;3.20;2.13;;;8.30;99.90;;;;;;5081145;28;20216;-81
2021/12/01 05:07:19;;;;;;;6.23;2.40;;;8.30;99.90;;;;;;5084539;28;20241;-81
2021/12/01 05:09:46;;;;;;;2.00;1.80;;;8.30;99.90;;;;;;5084063;28;20217;-80
2021/12/01 05:12:13;;;;;;;2.37;1.90;;;8.30;99.90;;;;;;5071868;28;20732;-83
2021/12/01 05:14:41;;;;;;;2.47;1.73;;;8.30;99.90;;;;;;5072050;28;20223;-81
2021/12/01 05:17:08;;;;;;;2.20;1.80;;;8.30;99.90;;;;;;5070183;28;20211;-82
2021/12/01 05:19:35;;;;;;;2.20;1.93;;;8.30;99.90;;;;;;5071282;28;20269;-81
2021/12/01 05:22:03;;;;;;;38.23;4.13;;;8.30;99.90;;;;;;5089170;28;20224;-86
2021/12/01 05:24:29;;;;;;;3.03;2.10;;;8.40;99.90;;;;;;5071373;28;20805;-84
2021/12/01 05:26:56;;;;;;;1.50;1.30;;;8.30;99.90;;;;;;5081892;28;20218;-81
2021/12/01 05:29:24;;;;;;;7.37;1.97;;;8.40;99.90;;;;;;5088981;28;20215;-82
2021/12/01 05:31:52;;;;;;;17.53;2.60;;;8.40;99.90;;;;;;5069742;28;20238;-82
2021/12/01 05:34:19;;;;;;;36.67;4.33;;;8.40;99.90;;;;;;5071648;28;20218;-82
2021/12/01 05:36:46;;;;;;;20.50;2.57;;;8.40;99.90;;;;;;5066133;28;20839;-82
2021/12/01 05:39:13;;;;;;;5.10;1.87;;;8.50;99.90;;;;;;5083819;28;20211;-82
2021/12/01 05:41:39;;;;;;;28.70;3.67;;;8.50;99.90;;;;;;5065863;28;20225;-82
2021/12/01 05:44:06;;;;;;;6.80;2.80;;;8.60;99.90;;;;;;5075151;28;20232;-82
2021/12/01 05:46:33;;;;;;;10.27;2.37;;;8.70;99.90;;;;;;5085068;28;20676;-82
2021/12/01 05:49:01;;;;;;;22.70;2.93;;;8.60;99.90;;;;;;5070470;28;20228;-84
2021/12/01 05:51:28;;;;;;;13.20;2.70;;;8.70;99.90;;;;;;5083774;28;20226;-84
2021/12/01 05:53:55;;;;;;;1.77;1.63;;;8.70;99.90;;;;;;5076977;28;20593;-82
2021/12/01 05:56:21;;;;;;;4.40;1.90;;;8.70;99.90;;;;;;5061390;28;20247;-81
2021/12/01 05:58:48;;;;;;;10.63;2.13;;;8.80;99.90;;;;;;5088932;28;20215;-84
2021/12/01 06:01:15;;;;;;;3.77;1.90;;;8.80;99.90;;;;;;5085205;28;20611;-81
2021/12/01 06:03:43;;;;;;;2.13;1.93;;;8.90;99.90;;;;;;5077845;28;20300;-82
2021/12/01 06:06:11;;;;;;;2.40;2.20;;;8.90;99.90;;;;;;5068948;28;20230;-81
2021/12/01 06:08:38;;;;;;;7.73;2.50;;;8.90;99.90;;;;;;5084127;28;20230;-82
2021/12/01 06:11:05;;;;;;;5.60;2.40;;;9.00;99.90;;;;;;5070763;28;20310;-81
2021/12/01 06:13:32;;;;;;;3.33;2.53;;;9.00;99.90;;;;;;5071561;28;20699;-82
2021/12/01 06:15:59;;;;;;;4.73;2.60;;;9.10;99.90;;;;;;5072381;28;20218;-81
2021/12/01 06:18:25;;;;;;;3.87;2.60;;;9.20;99.90;;;;;;5087472;28;20307;-81
2021/12/01 06:20:52;;;;;;;4.73;2.60;;;9.30;99.90;;;;;;5086154;28;20310;-81
2021/12/01 06:23:20;;;;;;;3.90;2.90;;;9.30;99.90;;;;;;5073856;28;20219;-81
2021/12/01 06:25:47;;;;;;;3.77;3.30;;;9.30;99.90;;;;;;5088364;28;20266;-81
2021/12/01 06:28:14;;;;;;;10.00;3.60;;;9.40;99.90;;;;;;5072812;28;20991;-82
2021/12/01 06:30:41;;;;;;;4.40;3.93;;;9.40;99.90;;;;;;5071029;28;20314;-81
2021/12/01 06:33:09;;;;;;;6.17;4.20;;;9.50;99.90;;;;;;5087725;28;20274;-82
2021/12/01 06:35:36;;;;;;;5.57;3.70;;;9.60;99.90;;;;;;5090688;28;20210;-81
2021/12/01 06:38:04;;;;;;;10.03;4.60;;;9.60;99.90;;;;;;5068858;28;20223;-81
2021/12/01 06:40:33;;;;;;;5.83;4.07;;;9.70;99.90;;;;;;5062554;28;20255;-81
2021/12/01 06:43:00;;;;;;;6.97;4.50;;;9.70;99.90;;;;;;5066513;28;20579;-82
2021/12/01 06:45:26;;;;;;;5.63;4.43;;;9.80;99.90;;;;;;5081854;28;20675;-82
2021/12/01 06:47:53;;;;;;;11.73;5.03;;;9.80;99.90;;;;;;5069607;28;20212;-82
2021/12/01 06:50:20;;;;;;;7.17;5.33;;;9.90;99.90;;;;;;5070195;28;20231;-81
2021/12/01 06:52:47;;;;;;;7.00;5.00;;;10.00;99.90;;;;;;5080631;28;20218;-81
2021/12/01 06:55:13;;;;;;;6.27;4.93;;;10.00;99.90;;;;;;5082366;28;20226;-82
2021/12/01 06:57:42;;;;;;;8.77;5.50;;;10.10;99.90;;;;;;5068141;28;20227;-83
2021/12/01 07:00:12;;;;;;;6.93;5.53;;;10.20;99.90;;;;;;5070632;28;20220;-83
2021/12/01 07:02:39;;;;;;;5.53;4.60;;;10.30;99.90;;;;;;5086012;28;20234;-83
2021/12/01 07:05:07;;;;;;;5.33;4.80;;;10.30;99.90;;;;;;5072764;28;20686;-84
2021/12/01 07:07:34;;;;;;;5.90;4.53;;;10.40;99.90;;;;;;5084991;28;20225;-83
2021/12/01 07:10:01;;;;;;;5.63;4.13;;;10.50;99.90;;;;;;5086149;28;20298;-83
2021/12/01 07:12:27;;;;;;;6.37;4.40;;;10.60;99.90;;;;;;5075970;28;20242;-84
2021/12/01 07:14:55;;;;;;;4.27;3.50;;;10.70;99.90;;;;;;5085788;28;20309;-85
2021/12/01 07:17:22;;;;;;;4.10;3.60;;;10.80;99.90;;;;;;5072510;28;20299;-82
2021/12/01 07:19:49;;;;;;;3.77;3.47;;;10.90;99.90;;;;;;5068061;28;20226;-83
2021/12/01 07:22:16;;;;;;;5.77;3.00;;;10.90;99.90;;;;;;5067575;28;20276;-81
2021/12/01 07:24:43;;;;;;;4.87;3.33;;;11.00;99.90;;;;;;5066916;28;20710;-79
2021/12/01 07:27:10;;;;;;;4.50;3.00;;;11.00;99.90;;;;;;5063740;28;20223;-79
2021/12/01 07:29:36;;;;;;;5.00;3.27;;;11.10;99.90;;;;;;5082368;28;20221;-79
2021/12/01 07:32:06;;;;;;;6.97;2.70;;;11.10;99.90;;;;;;5067699;28;20225;-79
2021/12/01 07:34:40;;;;;;;4.77;2.40;;;11.20;99.90;;;;;;5067077;28;20309;-80
2021/12/01 07:37:07;;;;;;;4.00;3.00;;;11.20;99.90;;;;;;5062818;28;20222;-79
2021/12/01 07:39:34;;;;;;;2.80;2.43;;;11.20;99.90;;;;;;5069924;28;20225;-79
2021/12/01 07:42:00;;;;;;;5.90;2.33;;;11.20;99.90;;;;;;5068127;28;20224;-80
2021/12/01 07:44:27;;;;;;;2.47;2.27;;;11.30;99.90;;;;;;5061076;28;21188;-81
2021/12/01 07:46:54;;;;;;;2.73;2.53;;;11.30;99.90;;;;;;5061355;28;20650;-79
2021/12/01 07:49:22;;;;;;;2.60;2.40;;;11.30;99.90;;;;;;5087660;28;20307;-80
2021/12/01 07:51:49;;;;;;;3.03;2.43;;;11.40;99.90;;;;;;5062858;28;20594;-80
2021/12/01 07:54:16;;;;;;;2.73;2.53;;;11.30;99.90;;;;;;5065786;28;20215;-80
2021/12/01 07:56:44;;;;;;;3.47;2.50;;;11.40;99.90;;;;;;5086212;28;20214;-79
2021/12/01 07:59:14;;;;;;;6.73;2.33;;;11.40;99.90;;;;;;5087850;28;20223;-79
2021/12/01 08:01:42;;;;;;;2.50;2.30;;;11.40;99.90;;;;;;5075850;28;20740;-80
2021/12/01 08:04:08;;;;;;;3.90;2.40;;;11.40;99.90;;;;;;5068960;28;20275;-79
2021/12/01 08:06:37;;;;;;;5.37;2.40;;;11.40;99.90;;;;;;5068113;28;20220;-80
2021/12/01 08:09:04;;;;;;;2.37;2.17;;;11.40;99.90;;;;;;5077185;28;20244;-80
2021/12/01 08:11:31;;;;;;;3.50;2.00;;;11.40;99.90;;;;;;5082334;28;20216;-79
2021/12/01 08:13:58;;;;;;;2.70;1.87;;;11.40;99.90;;;;;;5069240;28;20675;-79
2021/12/01 08:16:25;;;;;;;2.30;1.73;;;11.40;99.90;;;;;;5069899;28;20960;-80
2021/12/01 08:18:54;;;;;;;7.73;1.90;;;11.40;99.90;;;;;;5079776;28;20241;-80
2021/12/01 08:21:21;;;;;;;2.53;1.50;;;11.30;99.90;;;;;;5086564;28;20214;-80
2021/12/01 08:23:49;;;;;;;2.53;1.70;;;11.40;99.90;;;;;;5085982;28;20309;-79
2021/12/01 08:26:16;;;;;;;1.60;1.30;;;11.30;99.90;;;;;;5082178;28;20747;-79
2021/12/01 08:28:45;;;;;;;1.50;1.40;;;11.30;99.90;;;;;;5085649;28;20294;-79
2021/12/01 08:31:13;;;;;;;1.60;1.50;;;11.30;99.90;;;;;;5084587;28;20719;-80
2021/12/01 08:33:39;;;;;;;1.63;1.53;;;11.30;99.90;;;;;;5062629;28;20210;-79
2021/12/01 08:36:06;;;;;;;1.30;1.20;;;11.30;99.90;;;;;;5081009;28;20228;-80
2021/12/01 08:38:33;;;;;;;2.00;1.80;;;11.30;99.90;;;;;;5077063;28;20223;-80
2021/12/01 08:41:01;;;;;;;1.63;1.50;;;11.30;99.90;;;;;;5068863;28;20305;-80
2021/12/01 08:43:28;;;;;;;2.83;1.73;;;11.30;99.90;;;;;;5074501;28;20230;-79
2021/12/01 08:45:55;;;;;;;1.97;1.80;;;11.20;99.90;;;;;;5082674;28;20283;-80
2021/12/01 08:48:21;;;;;;;1.83;1.70;;;11.20;99.90;;;;;;5086171;28;20220;-79
2021/12/01 08:50:48;;;;;;;2.20;2.00;;;11.20;99.90;;;;;;5065875;28;20651;-80
2021/12/01 08:53:15;;;;;;;4.37;2.17;;;11.30;99.90;;;;;;5084148;28;20212;-79
2021/12/01 08:55:42;;;;;;;2.20;2.00;;;11.20;99.90;;;;;;5085842;28;20222;-79
2021/12/01 08:58:12;;;;;;;2.37;2.03;;;11.20;99.90;;;;;;5073677;28;20307;-79
2021/12/01 09:00:42;;;;;;;3.13;2.20;;;11.20;99.90;;;;;;5066408;28;20240;-80
2021/12/01 09:03:08;;;;;;;2.50;2.30;;;11.30;99.90;;;;;;5083038;28;20228;-80
2021/12/01 09:05:35;;;;;;;2.27;2.07;;;11.30;99.90;;;;;;5076358;28;20218;-80
2021/12/01 09:08:02;;;;;;;2.50;2.30;;;11.20;99.90;;;;;;5068798;28;20238;-80
2021/12/01 09:10:29;;;;;;;2.40;2.20;;;11.20;99.90;;;;;;5086491;28;20278;-80
2021/12/01 09:12:55;;;;;;;2.80;2.53;;;11.20;99.90;;;;;;5085401;28;20227;-80
2021/12/01 09:15:24;;;;;;;2.37;2.03;;;11.30;99.90;;;;;;5073691;28;20219;-80
2021/12/01 09:17:50;;;;;;;3.27;2.33;;;11.20;99.90;;;;;;5080585;28;20731;-80
2021/12/01 09:20:17;;;;;;;2.67;2.30;;;11.20;99.90;;;;;;5064540;28;20223;-80
2021/12/01 09:22:44;;;;;;;3.13;2.20;;;11.20;99.90;;;;;;5082786;28;20232;-79
2021/12/01 09:25:11;;;;;;;3.60;2.23;;;11.30;99.90;;;;;;5062339;28;20251;-81
2021/12/01 09:27:38;;;;;;;3.37;2.30;;;11.30;99.90;;;;;;5078429;28;20222;-81
2021/12/01 09:30:07;;;;;;;2.80;2.60;;;11.30;99.90;;;;;;5069230;28;20215;-80
2021/12/01 09:32:37;;;;;;;3.23;2.53;;;11.30;99.90;;;;;;5081734;28;20252;-79
2021/12/01 09:35:06;;;;;;;2.17;2.00;;;11.30;99.90;;;;;;5063961;28;20219;-79
2021/12/01 09:37:33;;;;;;;2.73;2.33;;;11.30;99.90;;;;;;5079813;28;20224;-80
2021/12/01 09:40:02;;;;;;;2.17;1.97;;;11.30;99.90;;;;;;5062305;28;20893;-79
2021/12/01 09:42:29;;;;;;;2.27;1.80;;;11.20;99.90;;;;;;5082379;28;20237;-79
2021/12/01 09:44:57;;;;;;;3.00;2.10;;;11.20;99.90;;;;;;5087304;28;20271;-79
2021/12/01 09:47:24;;;;;;;2.33;2.10;;;11.20;99.90;;;;;;5083701;28;20229;-79
2021/12/01 09:49:52;;;;;;;4.50;2.23;;;11.20;99.90;;;;;;5064696;28;20230;-79
2021/12/01 09:52:19;;;;;;;2.40;1.60;;;11.20;99.90;;;;;;5057067;28;20266;-78
2021/12/01 09:54:50;;;;;;;2.30;1.90;;;11.10;99.90;;;;;;5079253;28;20225;-78
2021/12/01 09:57:17;;;;;;;1.80;1.70;;;11.20;99.90;;;;;;5085769;28;20298;-78
2021/12/01 09:59:44;;;;;;;1.40;1.30;;;11.20;99.90;;;;;;5074106;28;20224;-78
2021/12/01 10:02:11;;;;;;;2.33;1.50;;;11.20;99.90;;;;;;5073782;28;20226;-79
2021/12/01 10:04:38;;;;;;;2.17;1.60;;;11.20;99.90;;;;;;5067828;28;20251;-79
2021/12/01 10:07:15;;;;;;;2.03;1.40;;;11.20;99.90;;;;;;5082354;28;20227;-78
2021/12/01 10:09:50;;;;;;;1.80;1.27;;;11.30;99.90;;;;;;5067647;28;20228;-78
2021/12/01 10:12:17;;;;;;;1.40;1.30;;;11.20;99.90;;;;;;5081975;28;20308;-79
2021/12/01 10:14:45;;;;;;;2.07;1.37;;;11.20;99.90;;;;;;5060408;28;20212;-79
2021/12/01 10:17:12;;;;;;;1.50;1.40;;;11.20;99.90;;;;;;5062405;28;20215;-78
2021/12/01 10:19:39;;;;;;;1.47;1.37;;;11.20;99.90;;;;;;5056775;28;20226;-78
2021/12/01 10:22:10;;;;;;;3.40;1.50;;;11.20;99.90;;;;;;5066478;28;20222;-79
2021/12/01 10:24:41;;;;;;;3.33;1.60;;;11.20;99.90;;;;;;5084439;28;20231;-79
2021/12/01 10:27:12;;;;;;;1.30;1.20;;;11.30;99.90;;;;;;5085022;28;20212;-78
2021/12/01 10:29:42;;;;;;;2.43;1.43;;;11.20;99.90;;;;;;5068673;28;20294;-78
2021/12/01 10:32:15;;;;;;;2.10;1.40;;;11.30;99.90;;;;;;5067035;28;20234;-80
2021/12/01 10:34:46;;;;;;;2.33;1.30;;;11.30;99.90;;;;;;5075584;28;20221;-79
2021/12/01 10:37:18;;;;;;;1.57;1.30;;;11.30;99.90;;;;;;5068739;28;20258;-79
2021/12/01 10:39:48;;;;;;;2.00;1.40;;;11.30;99.90;;;;;;5088532;28;20968;-79
2021/12/01 10:42:17;;;;;;;1.93;1.70;;;11.30;99.90;;;;;;5081071;28;20214;-79
2021/12/01 10:44:59;;;;;;;1.37;1.27;;;11.30;99.90;;;;;;5083945;28;20520;-79
2021/12/01 10:47:26;;;;;;;1.60;1.50;;;11.30;99.90;;;;;;5086631;28;20562;-78
2021/12/01 10:49:57;;;;;;;1.63;1.47;;;11.30;99.90;;;;;;5084481;28;20233;-78
2021/12/01 10:52:32;;;;;;;1.37;1.27;;;11.30;99.90;;;;;;5076424;28;20214;-78
2021/12/01 10:55:12;;;;;;;1.20;1.10;;;11.40;99.90;;;;;;5065119;28;20252;-79
2021/12/01 10:57:41;;;;;;;1.50;1.37;;;11.30;99.90;;;;;;5082335;28;20243;-79
2021/12/01 11:00:17;;;;;;;1.40;1.30;;;11.30;99.90;;;;;;5085153;28;20882;-79
2021/12/01 11:02:44;;;;;;;1.50;1.40;;;11.30;99.90;;;;;;5058692;28;20231;-80
2021/12/01 11:05:11;;;;;;;1.70;1.60;;;11.30;99.90;;;;;;5084443;28;20235;-79
2021/12/01 11:07:37;;;;;;;1.83;1.70;;;11.30;99.90;;;;;;5086549;28;20224;-79
2021/12/01 11:10:18;;;;;;;1.60;1.47;;;11.30;99.90;;;;;;5069798;28;20222;-79
2021/12/01 11:12:47;;;;;;;1.37;1.27;;;11.30;99.90;;;;;;5075971;28;20232;-79
2021/12/01 11:15:19;;;;;;;1.80;1.50;;;11.30;99.90;;;;;;5083907;28;20205;-79
2021/12/01 11:17:46;;;;;;;1.50;1.40;;;11.30;99.90;;;;;;5069349;28;20226;-79
2021/12/01 11:20:31;;;;;;;1.70;1.20;;;11.20;99.90;;;;;;5064787;28;20233;-78
2021/12/01 11:23:08;;;;;;;1.50;1.30;;;11.30;99.90;;;;;;5059739;28;20243;-78
2021/12/01 11:25:37;;;;;;;1.43;1.33;;;11.20;99.90;;;;;;5083298;28;20239;-78
2021/12/01 11:28:05;;;;;;;2.37;1.50;;;11.20;99.90;;;;;;5084390;28;20701;-78
2021/12/01 11:30:31;;;;;;;1.60;1.50;;;11.20;99.90;;;;;;5068409;28;20368;-78
2021/12/01 11:32:59;;;;;;;1.30;1.20;;;11.30;99.90;;;;;;5078648;28;20299;-79
2021/12/01 11:35:26;;;;;;;1.90;1.20;;;11.30;99.90;;;;;;5068921;28;20222;-78
2021/12/01 11:37:55;;;;;;;3.03;1.40;;;11.30;99.90;;;;;;5077574;28;20234;-78
2021/12/01 11:40:22;;;;;;;1.10;1.00;;;11.40;99.90;;;;;;5078263;28;20214;-79
2021/12/01 11:42:50;;;;;;;2.07;1.20;;;11.40;99.90;;;;;;5078999;28;20588;-79
2021/12/01 11:45:17;;;;;;;1.30;1.20;;;11.40;99.90;;;;;;5064104;28;20313;-78
2021/12/01 11:47:47;;;;;;;1.20;1.00;;;11.40;99.90;;;;;;5055836;28;20311;-78
2021/12/01 11:50:19;;;;;;;1.60;1.00;;;11.40;99.90;;;;;;5085909;28;20306;-78
2021/12/01 11:53:02;;;;;;;1.73;1.17;;;11.40;99.90;;;;;;5068026;28;20340;-78
2021/12/01 11:55:54;;;;;;;1.10;1.00;;;11.50;99.90;;;;;;5060406;28;20221;-79
2021/12/01 11:58:48;;;;;;;0.90;0.90;;;11.50;99.90;;;;;;5083108;28;20222;-78
2021/12/01 12:01:36;;;;;;;0.90;0.90;;;11.50;99.90;;;;;;5075995;28;20232;-79
2021/12/01 12:04:43;;;;;;;1.57;0.93;;;11.50;99.90;;;;;;5067849;28;20220;-79
2021/12/01 12:07:14;;;;;;;1.13;0.90;;;11.60;99.90;;;;;;5086067;28;20230;-78
2021/12/01 12:09:41;;;;;;;3.10;1.00;;;11.60;99.90;;;;;;5067298;28;20665;-78
2021/12/01 12:12:20;;;;;;;1.30;1.10;;;11.60;99.90;;;;;;5074609;28;20306;-78
2021/12/01 12:14:54;;;;;;;2.03;1.00;;;11.60;99.90;;;;;;5082259;28;21113;-78
2021/12/01 12:17:32;;;;;;;1.20;1.10;;;11.60;99.90;;;;;;5077546;28;20210;-78
2021/12/01 12:20:08;;;;;;;1.30;1.00;;;11.60;99.90;;;;;;5068742;28;20253;-78
2021/12/01 12:22:58;;;;;;;1.43;1.10;;;11.60;99.90;;;;;;5066042;28;20211;-79
2021/12/01 12:25:50;;;;;;;2.50;1.00;;;11.50;99.90;;;;;;5073920;28;20222;-78
2021/12/01 12:28:26;;;;;;;2.40;1.03;;;11.60;99.90;;;;;;5062541;28;20220;-78
2021/12/01 12:30:55;;;;;;;1.10;1.00;;;11.60;99.90;;;;;;5065721;28;20766;-78
2021/12/01 12:33:26;;;;;;;0.80;0.80;;;11.60;99.90;;;;;;5076919;28;20215;-78
2021/12/01 12:35:55;;;;;;;1.43;0.83;;;11.60;99.90;;;;;;5067806;28;20617;-78
2021/12/01 12:38:22;;;;;;;0.80;0.70;;;11.60;99.90;;;;;;5082646;28;20225;-77
2021/12/01 12:41:01;;;;;;;0.80;0.70;;;11.60;99.90;;;;;;5055857;28;20226;-78
2021/12/01 12:43:29;;;;;;;1.00;0.60;;;11.60;99.90;;;;;;5074529;28;20652;-78
2021/12/01 12:46:07;;;;;;;0.67;0.67;;;11.60;99.90;;;;;;5071942;28;20294;-79
2021/12/01 12:48:36;;;;;;;0.70;0.60;;;11.70;99.90;;;;;;5061130;28;20307;-79
2021/12/01 12:51:08;;;;;;;0.93;0.60;;;11.70;99.90;;;;;;5061480;28;20745;-78
2021/12/01 12:53:35;;;;;;;0.90;0.60;;;11.80;99.90;;;;;;5083306;28;20308;-79
2021/12/01 12:56:24;;;;;;;1.90;0.70;;;11.70;99.90;;;;;;5080777;28;20877;-78
2021/12/01 12:58:51;;;;;;;1.73;0.60;;;11.80;99.90;;;;;;5068569;28;20230;-79
2021/12/01 13:01:26;;;;;;;0.60;0.60;;;11.80;99.90;;;;;;5065493;28;20255;-79
2021/12/01 13:03:54;;;;;;;2.97;0.83;;;11.90;99.90;;;;;;5075248;28;20216;-78